Time;durP1;ratioP1;P1;durP2;ratioP2;P2;SDS_P1;SDS_P2;PMS_P1;PMS_P2;Temp;Humidity;BMP_temperature;BMP_pressure;BME280_temperature;BME280_humidity;BME280_pressure;Samples;Min_cycle;Max_cycle;Signal;HPM_P1;HPM_P2
2022/08/17 00:00:33;;;;;;;;;;;22.50;99.90;;;;;;5050380;28;19975;-70
2022/08/17 00:03:02;;;;;;;;;;;22.50;99.90;;;;;;5035261;28;20355;-70
2022/08/17 00:05:29;;;;;;;;;;;22.50;99.90;;;;;;5036621;28;20399;-70
2022/08/17 00:07:56;;;;;;;;;;;22.60;99.90;;;;;;5034680;28;19934;-70
2022/08/17 00:10:22;;;;;;;;;;;22.60;99.90;;;;;;5034590;28;19925;-69
2022/08/17 00:12:50;;;;;;;;;;;22.70;99.90;;;;;;5037517;28;20391;-70
2022/08/17 00:15:19;;;;;;;;;;;22.70;99.90;;;;;;5043114;28;19925;-70
2022/08/17 00:17:46;;;;;;;;;;;22.60;99.90;;;;;;5038085;28;19925;-70
2022/08/17 00:20:13;;;;;;;;;;;22.40;99.90;;;;;;5035821;28;19925;-70
2022/08/17 00:22:40;;;;;;;;;;;22.30;99.90;;;;;;5034732;28;20400;-69
2022/08/17 00:25:08;;;;;;;;;;;22.30;99.90;;;;;;5039449;28;20350;-70
2022/08/17 00:27:35;;;;;;;;;;;22.30;99.90;;;;;;5037665;28;19932;-70
2022/08/17 00:30:04;;;;;;;;;;;22.20;99.90;;;;;;5034221;28;19932;-70
2022/08/17 00:32:37;;;;;;;;;;;22.20;99.90;;;;;;5039597;28;19979;-70
2022/08/17 00:35:04;;;;;;;;;;;22.20;99.90;;;;;;5041635;28;20027;-70
2022/08/17 00:37:31;;;;;;;;;;;22.10;99.90;;;;;;5039435;28;19925;-69
2022/08/17 00:39:58;;;;;;;;;;;22.10;99.90;;;;;;5039384;28;19964;-69
2022/08/17 00:42:25;;;;;;;;;;;22.00;99.90;;;;;;5036413;28;19935;-69
2022/08/17 00:44:51;;;;;;;;;;;21.90;99.90;;;;;;5038465;28;19941;-69
2022/08/17 00:47:18;;;;;;;;;;;21.90;99.90;;;;;;5038567;28;20396;-70
2022/08/17 00:49:46;;;;;;;;;;;21.80;99.90;;;;;;5039973;28;19925;-70
2022/08/17 00:52:17;;;;;;;;;;;21.80;99.90;;;;;;5040201;28;19975;-70
2022/08/17 00:54:46;;;;;;;;;;;21.70;99.90;;;;;;5041166;28;19948;-69
2022/08/17 00:57:16;;;;;;;;;;;21.70;99.90;;;;;;5032889;28;19932;-69
2022/08/17 00:59:45;;;;;;;;;;;21.70;99.90;;;;;;5051393;28;19929;-70
2022/08/17 01:02:14;;;;;;;;;;;21.60;99.90;;;;;;5036201;28;19931;-70
2022/08/17 01:04:42;;;;;;;;;;;21.60;99.90;;;;;;5034247;28;20324;-70
2022/08/17 01:07:10;;;;;;;;;;;21.50;99.90;;;;;;5033367;28;19932;-69
2022/08/17 01:09:37;;;;;;;;;;;21.50;99.90;;;;;;5039312;28;20399;-70
2022/08/17 01:12:07;;;;;;;;;;;21.50;99.90;;;;;;5032395;28;20507;-70
2022/08/17 01:14:34;;;;;;;;;;;21.50;99.90;;;;;;5039885;28;19925;-69
2022/08/17 01:17:00;;;;;;;;;;;21.40;99.90;;;;;;5045965;28;19925;-70
2022/08/17 01:19:29;;;;;;;;;;;21.40;99.90;;;;;;5034553;28;20354;-70
2022/08/17 01:22:02;;;;;;;;;;;21.30;99.90;;;;;;5037155;28;19990;-69
2022/08/17 01:24:31;;;;;;;;;;;21.10;99.90;;;;;;5033448;28;19944;-69
2022/08/17 01:26:57;;;;;;;;;;;21.00;99.90;;;;;;5033695;28;19925;-69
2022/08/17 01:29:25;;;;;;;;;;;20.90;99.90;;;;;;5038279;28;20003;-70
2022/08/17 01:31:53;;;;;;;;;;;20.70;99.90;;;;;;5034614;28;19925;-69
2022/08/17 01:34:20;;;;;;;;;;;20.60;99.90;;;;;;5040260;28;19933;-70
2022/08/17 01:36:48;;;;;;;;;;;20.50;99.90;;;;;;5034658;28;19979;-69
2022/08/17 01:39:17;;;;;;;;;;;20.50;99.90;;;;;;5038454;28;19932;-70
2022/08/17 01:41:46;;;;;;;;;;;20.40;99.90;;;;;;5043523;28;19925;-69
2022/08/17 01:44:14;;;;;;;;;;;20.30;99.90;;;;;;5033979;28;19925;-70
2022/08/17 01:46:41;;;;;;;;;;;20.40;99.90;;;;;;5034637;28;20338;-70
2022/08/17 01:49:09;;;;;;;;;;;20.40;99.90;;;;;;5036688;28;20335;-69
2022/08/17 01:51:37;;;;;;;;;;;20.40;99.90;;;;;;5051644;28;19929;-69
2022/08/17 01:54:05;;;;;;;;;;;20.40;99.90;;;;;;5038650;28;19932;-69
2022/08/17 01:56:33;;;;;;;;;;;20.40;99.90;;;;;;5049611;28;19925;-70
2022/08/17 01:59:02;;;;;;;;;;;20.40;99.90;;;;;;5039032;28;20402;-70
2022/08/17 02:01:30;;;;;;;;;;;20.50;99.90;;;;;;5039142;28;19929;-70
2022/08/17 02:03:57;;;;;;;;;;;20.50;99.90;;;;;;5041688;28;19971;-70
2022/08/17 02:06:24;;;;;;;;;;;20.50;99.90;;;;;;5034753;28;19929;-70
2022/08/17 02:08:50;;;;;;;;;;;20.50;99.90;;;;;;5053931;28;19982;-68
2022/08/17 02:11:18;;;;;;;;;;;20.50;99.90;;;;;;5034850;28;20382;-70
2022/08/17 02:13:45;;;;;;;;;;;20.40;99.90;;;;;;5036999;28;19976;-69
2022/08/17 02:16:14;;;;;;;;;;;20.40;99.90;;;;;;5037353;28;19929;-69
2022/08/17 02:18:41;;;;;;;;;;;20.40;99.90;;;;;;5039297;28;20300;-70
2022/08/17 02:21:08;;;;;;;;;;;20.40;99.90;;;;;;5040481;28;19932;-69
2022/08/17 02:23:36;;;;;;;;;;;20.30;99.90;;;;;;5032932;28;20388;-69
2022/08/17 02:26:03;;;;;;;;;;;20.20;99.90;;;;;;5037435;28;19925;-69
2022/08/17 02:28:30;;;;;;;;;;;20.20;99.90;;;;;;5038628;28;19925;-70
2022/08/17 02:30:57;;;;;;;;;;;20.20;99.90;;;;;;5037178;28;19924;-70
2022/08/17 02:33:25;;;;;;;;;;;20.20;99.90;;;;;;5036365;28;19925;-70
2022/08/17 02:35:52;;;;;;;;;;;20.20;99.90;;;;;;5034726;28;19925;-70
2022/08/17 02:38:19;;;;;;;;;;;20.10;99.90;;;;;;5032910;28;20351;-69
2022/08/17 02:40:46;;;;;;;;;;;20.20;99.90;;;;;;5032083;28;19974;-69
2022/08/17 02:43:13;;;;;;;;;;;20.20;99.90;;;;;;5035666;28;19925;-70
2022/08/17 02:45:40;;;;;;;;;;;20.20;99.90;;;;;;5041882;28;19925;-69
2022/08/17 02:48:07;;;;;;;;;;;20.20;99.90;;;;;;5046045;28;19929;-70
2022/08/17 02:50:35;;;;;;;;;;;20.30;99.90;;;;;;5042029;28;19925;-69
2022/08/17 02:53:02;;;;;;;;;;;20.30;99.90;;;;;;5041482;28;19925;-70
2022/08/17 02:55:29;;;;;;;;;;;20.30;99.90;;;;;;5042402;28;19932;-69
2022/08/17 02:57:56;;;;;;;;;;;20.40;99.90;;;;;;5040473;28;19929;-69
2022/08/17 03:00:24;;;;;;;;;;;20.40;99.90;;;;;;5037674;28;19929;-70
2022/08/17 03:02:51;;;;;;;;;;;20.40;99.90;;;;;;5042424;28;19925;-70
2022/08/17 03:05:20;;;;;;;;;;;20.40;99.90;;;;;;5048854;28;19925;-69
2022/08/17 03:07:48;;;;;;;;;;;20.40;99.90;;;;;;5042818;28;19932;-69
2022/08/17 03:10:16;;;;;;;;;;;20.40;99.90;;;;;;5047493;28;19975;-70
2022/08/17 03:12:43;;;;;;;;;;;20.40;99.90;;;;;;5035856;28;20400;-70
2022/08/17 03:15:11;;;;;;;;;;;20.40;99.90;;;;;;5042238;28;19925;-69
2022/08/17 03:17:38;;;;;;;;;;;20.40;99.90;;;;;;5047737;28;19980;-70
2022/08/17 03:20:06;;;;;;;;;;;20.40;99.90;;;;;;5036868;28;19925;-69
2022/08/17 03:22:35;;;;;;;;;;;20.40;99.90;;;;;;5048653;28;20011;-69
2022/08/17 03:25:04;;;;;;;;;;;20.40;99.90;;;;;;5042143;28;19929;-69
2022/08/17 03:27:31;;;;;;;;;;;20.40;99.90;;;;;;5049013;28;19925;-70
2022/08/17 03:29:58;;;;;;;;;;;20.40;99.90;;;;;;5041973;28;19928;-69
2022/08/17 03:32:25;;;;;;;;;;;20.40;99.90;;;;;;5041487;28;19925;-69
2022/08/17 03:34:51;;;;;;;;;;;20.30;99.90;;;;;;5044432;28;19925;-69
2022/08/17 03:37:18;;;;;;;;;;;20.20;99.90;;;;;;5034016;28;19933;-69
2022/08/17 03:39:45;;;;;;;;;;;20.20;99.90;;;;;;5042633;28;19925;-69
2022/08/17 03:42:15;;;;;;;;;;;20.10;99.90;;;;;;5035756;28;19929;-69
2022/08/17 03:44:42;;;;;;;;;;;20.10;99.90;;;;;;5048740;28;19932;-70
2022/08/17 03:58:08;;;;;;;;;;;20.20;99.90;;;;;;5061616;28;19921;-70
2022/08/17 04:00:35;;;;;;;;;;;20.20;99.90;;;;;;5042456;28;19925;-70
2022/08/17 04:03:02;;;;;;;;;;;20.20;99.90;;;;;;5038758;28;19925;-69
2022/08/17 04:05:28;;;;;;;;;;;20.20;99.90;;;;;;5036954;28;19925;-69
2022/08/17 04:07:55;;;;;;;;;;;20.20;99.90;;;;;;5032745;28;19931;-70
2022/08/17 04:10:22;;;;;;;;;;;20.30;99.90;;;;;;5045982;28;19979;-70
2022/08/17 04:12:53;;;;;;;;;;;20.30;99.90;;;;;;5040993;28;19925;-68
2022/08/17 04:15:22;;;;;;;;;;;20.40;99.90;;;;;;5042631;28;19929;-68
2022/08/17 04:17:48;;;;;;;;;;;20.50;99.90;;;;;;5042737;28;20418;-68
2022/08/17 04:20:17;;;;;;;;;;;20.50;99.90;;;;;;5039621;28;19973;-68
2022/08/17 04:22:55;;;;;;;;;;;20.50;99.90;;;;;;5046632;28;20404;-67
2022/08/17 04:25:22;;;;;;;;;;;20.50;99.90;;;;;;5047924;28;19932;-68
2022/08/17 04:27:49;;;;;;;;;;;20.60;99.90;;;;;;5035667;28;19948;-68
2022/08/17 04:30:16;;;;;;;;;;;20.60;99.90;;;;;;5040191;28;19939;-68
2022/08/17 04:32:57;;;;;;;;;;;20.70;99.90;;;;;;5036574;28;19925;-67
2022/08/17 04:35:25;;;;;;;;;;;20.70;99.90;;;;;;5039960;28;20416;-70
2022/08/17 04:37:52;;;;;;;;;;;20.80;99.90;;;;;;5038193;28;19925;-68
2022/08/17 04:43:05;;;;;;;;;;;20.90;99.90;;;;;;5030488;28;20385;-67
2022/08/17 04:45:32;;;;;;;;;;;20.90;99.90;;;;;;5052901;28;19924;-68
2022/08/17 04:48:01;;;;;;;;;;;20.60;99.90;;;;;;5035809;28;19929;-68
2022/08/17 04:50:27;;;;;;;;;;;20.40;99.90;;;;;;5040150;28;19935;-67
2022/08/17 04:52:56;;;;;;;;;;;20.60;99.90;;;;;;5036080;28;19971;-68
2022/08/17 04:55:22;;;;;;;;;;;20.70;99.90;;;;;;5037355;28;19929;-68
2022/08/17 04:57:49;;;;;;;;;;;20.90;99.90;;;;;;5038835;28;19928;-68
2022/08/17 05:00:18;;;;;;;;;;;21.00;99.90;;;;;;5034000;28;20278;-68
2022/08/17 05:02:45;;;;;;;;;;;21.10;99.90;;;;;;5028901;28;19925;-68
2022/08/17 05:05:17;;;;;;;;;;;21.10;99.90;;;;;;5036536;28;19925;-68
2022/08/17 05:07:44;;;;;;;;;;;21.10;99.90;;;;;;5051004;28;19929;-69
2022/08/17 05:10:11;;;;;;;;;;;21.20;99.90;;;;;;5038083;28;19925;-69
2022/08/17 05:12:37;;;;;;;;;;;21.20;99.90;;;;;;5036126;28;19933;-69
2022/08/17 05:15:05;;;;;;;;;;;21.20;99.90;;;;;;5040003;28;20043;-70
2022/08/17 05:17:31;;;;;;;;;;;21.30;99.90;;;;;;5037317;28;19925;-69
2022/08/17 05:19:58;;;;;;;;;;;21.30;99.90;;;;;;5040392;28;19925;-69
2022/08/17 05:22:27;;;;;;;;;;;21.30;99.90;;;;;;5036750;28;19936;-68
2022/08/17 05:24:53;;;;;;;;;;;21.40;99.90;;;;;;5036576;28;19931;-67
2022/08/17 05:27:21;;;;;;;;;;;21.40;99.90;;;;;;5038501;28;19925;-68
2022/08/17 05:29:48;;;;;;;;;;;21.50;99.90;;;;;;5058085;28;19924;-68
2022/08/17 05:32:15;;;;;;;;;;;21.60;99.90;;;;;;5044901;28;19929;-67
2022/08/17 05:34:41;;;;;;;;;;;21.60;99.90;;;;;;5034180;28;19987;-67
2022/08/17 05:37:08;;;;;;;;;;;21.60;99.90;;;;;;5033541;28;19933;-67
2022/08/17 05:39:36;;;;;;;;;;;21.70;99.90;;;;;;5037567;28;19971;-67
2022/08/17 05:42:03;;;;;;;;;;;21.70;99.90;;;;;;5038387;28;19925;-67
2022/08/17 05:44:30;;;;;;;;;;;21.70;99.90;;;;;;5038221;28;19947;-67
2022/08/17 05:46:59;;;;;;;;;;;21.70;99.90;;;;;;5035730;28;19928;-67
2022/08/17 05:49:27;;;;;;;;;;;21.70;99.90;;;;;;5034040;28;19944;-67
2022/08/17 05:52:08;;;;;;;;;;;21.80;99.90;;;;;;5040048;28;19929;-67
2022/08/17 05:54:42;;;;;;;;;;;21.80;99.90;;;;;;5040474;28;19929;-67
2022/08/17 05:57:18;;;;;;;;;;;21.80;99.90;;;;;;5044235;28;19951;-67
2022/08/17 05:59:51;;;;;;;;;;;21.90;99.90;;;;;;5043365;28;19925;-67
2022/08/17 06:02:21;;;;;;;;;;;21.90;99.90;;;;;;5034827;28;19925;-67
2022/08/17 06:04:59;;;;;;;;;;;21.90;99.90;;;;;;5032623;28;19979;-67
2022/08/17 06:07:31;;;;;;;;;;;21.90;99.90;;;;;;5038374;28;19937;-67
2022/08/17 06:10:03;;;;;;;;;;;21.80;99.90;;;;;;5037042;28;19925;-67
2022/08/17 06:12:39;;;;;;;;;;;21.80;99.90;;;;;;5039530;28;19929;-67
2022/08/17 06:15:15;;;;;;;;;;;21.80;99.90;;;;;;5033698;28;19925;-67
2022/08/17 06:17:42;;;;;;;;;;;21.80;99.90;;;;;;5045320;28;19925;-67
2022/08/17 06:20:10;;;;;;;;;;;21.80;99.90;;;;;;5034330;28;20354;-67
2022/08/17 06:22:40;;;;;;;;;;;21.70;99.90;;;;;;5033399;28;19928;-67
2022/08/17 06:25:13;;;;;;;;;;;21.70;99.90;;;;;;5038631;28;19929;-68
2022/08/17 06:27:41;;;;;;;;;;;21.80;99.90;;;;;;5042242;28;19936;-67
2022/08/17 06:30:11;;;;;;;;;;;21.80;99.90;;;;;;5044470;28;19932;-67
2022/08/17 06:32:39;;;;;;;;;;;21.90;99.90;;;;;;5037118;28;19937;-67
2022/08/17 06:35:07;;;;;;;;;;;22.00;99.90;;;;;;5045819;28;19928;-67
2022/08/17 06:37:47;;;;;;;;;;;22.00;99.90;;;;;;5037951;28;19929;-68
2022/08/17 06:40:27;;;;;;;;;;;22.10;99.90;;;;;;5038080;28;19941;-67
2022/08/17 06:42:58;;;;;;;;;;;22.30;99.90;;;;;;5047974;28;19929;-67
2022/08/17 06:45:27;;;;;;;;;;;22.40;99.90;;;;;;5037589;28;19940;-67
2022/08/17 06:47:59;;;;;;;;;;;22.50;99.90;;;;;;5042315;28;19960;-68
2022/08/17 06:50:34;;;;;;;;;;;22.70;99.90;;;;;;5037033;28;19933;-67
2022/08/17 06:53:05;;;;;;;;;;;22.60;99.90;;;;;;5046523;28;19929;-67
2022/08/17 06:55:50;;;;;;;;;;;22.60;99.90;;;;;;5034885;28;19937;-67
2022/08/17 06:58:20;;;;;;;;;;;22.80;99.90;;;;;;5037306;28;20419;-67
2022/08/17 07:00:48;;;;;;;;;;;22.80;99.90;;;;;;5044729;28;19924;-67
2022/08/17 07:03:19;;;;;;;;;;;22.80;99.90;;;;;;5043057;28;19928;-67
2022/08/17 07:05:48;;;;;;;;;;;22.70;99.90;;;;;;5049693;28;19926;-67
2022/08/17 07:08:18;;;;;;;;;;;22.70;99.90;;;;;;5046353;28;19928;-67
2022/08/17 07:10:49;;;;;;;;;;;22.60;99.90;;;;;;5049858;28;19961;-67
2022/08/17 07:13:22;;;;;;;;;;;22.70;99.90;;;;;;5036256;28;19925;-67
2022/08/17 07:15:49;;;;;;;;;;;22.60;99.90;;;;;;5046213;28;19929;-67
2022/08/17 07:18:16;;;;;;;;;;;22.60;99.90;;;;;;5036715;28;19933;-67
2022/08/17 07:20:47;;;;;;;;;;;22.60;99.90;;;;;;5046284;28;19925;-68
2022/08/17 07:23:18;;;;;;;;;;;22.60;99.90;;;;;;5039653;28;19925;-68
2022/08/17 07:25:47;;;;;;;;;;;22.60;99.90;;;;;;5044695;28;20376;-68
2022/08/17 07:28:19;;;;;;;;;;;22.70;99.90;;;;;;5036252;28;19979;-68
2022/08/17 07:30:48;;;;;;;;;;;22.80;99.90;;;;;;5037377;28;19925;-68
2022/08/17 07:33:18;;;;;;;;;;;22.70;99.90;;;;;;5041294;28;20012;-68
2022/08/17 07:35:47;;;;;;;;;;;22.70;99.90;;;;;;5036915;28;20361;-67
2022/08/17 07:38:15;;;;;;;;;;;22.60;99.90;;;;;;5037247;28;19948;-68
2022/08/17 07:40:42;;;;;;;;;;;22.70;99.90;;;;;;5034969;28;20354;-68
2022/08/17 07:43:16;;;;;;;;;;;22.70;99.90;;;;;;5043185;28;19933;-68
2022/08/17 07:48:39;;;;;;;;;;;22.80;99.90;;;;;;5042772;28;19928;-68
2022/08/17 07:51:17;;;;;;;;;;;22.70;99.90;;;;;;5038211;28;19925;-68
2022/08/17 07:53:44;;;;;;;;;;;22.70;99.90;;;;;;5038910;28;19936;-68
2022/08/17 07:56:14;;;;;;;;;;;22.60;99.90;;;;;;5034738;28;20354;-68
2022/08/17 07:58:42;;;;;;;;;;;22.60;99.90;;;;;;5034785;28;19925;-68
2022/08/17 08:01:11;;;;;;;;;;;22.70;99.90;;;;;;5044289;28;20311;-67
2022/08/17 08:03:40;;;;;;;;;;;22.70;99.90;;;;;;5040113;28;19932;-68
2022/08/17 08:06:19;;;;;;;;;;;22.60;99.90;;;;;;5048301;28;20273;-68
2022/08/17 08:08:49;;;;;;;;;;;22.50;99.90;;;;;;5026768;28;19933;-67
2022/08/17 08:11:30;;;;;;;;;;;22.50;99.90;;;;;;5057472;28;19925;-68
2022/08/17 08:14:16;;;;;;;;;;;22.50;99.90;;;;;;5055604;28;19929;-68
2022/08/17 08:16:55;;;;;;;;;;;22.50;99.90;;;;;;5027934;28;20350;-68
2022/08/17 08:19:23;;;;;;;;;;;22.60;99.90;;;;;;5039491;28;19932;-68
2022/08/17 08:21:55;;;;;;;;;;;22.70;99.90;;;;;;5037364;28;19928;-68
2022/08/17 08:24:31;;;;;;;;;;;22.70;99.90;;;;;;5034485;28;19925;-68
2022/08/17 08:27:01;;;;;;;;;;;22.50;99.90;;;;;;5034681;28;19932;-68
2022/08/17 08:29:36;;;;;;;;;;;22.60;99.90;;;;;;5035924;28;19925;-68
2022/08/17 08:32:06;;;;;;;;;;;22.70;99.90;;;;;;5041516;28;20027;-68
2022/08/17 08:34:37;;;;;;;;;;;22.80;99.90;;;;;;5050929;28;19975;-68
2022/08/17 08:37:12;;;;;;;;;;;22.60;99.90;;;;;;5031514;28;19929;-68
2022/08/17 08:39:43;;;;;;;;;;;22.70;99.90;;;;;;5058654;28;20376;-68
2022/08/17 08:42:17;;;;;;;;;;;22.70;99.90;;;;;;5039862;28;19933;-68
2022/08/17 08:44:47;;;;;;;;;;;22.80;99.90;;;;;;5035614;28;19933;-68
2022/08/17 08:47:18;;;;;;;;;;;23.00;99.90;;;;;;5034753;28;19925;-68
2022/08/17 08:49:51;;;;;;;;;;;23.00;99.90;;;;;;5032193;28;20412;-68
2022/08/17 08:52:29;;;;;;;;;;;23.10;99.90;;;;;;5032819;28;19972;-68
2022/08/17 08:54:59;;;;;;;;;;;23.10;99.90;;;;;;5042264;28;19929;-68
2022/08/17 08:57:27;;;;;;;;;;;23.00;99.90;;;;;;5033888;28;19933;-68
2022/08/17 09:00:04;;;;;;;;;;;23.00;99.90;;;;;;5040315;28;20400;-68
2022/08/17 09:02:40;;;;;;;;;;;23.00;99.90;;;;;;5049630;28;19925;-68
2022/08/17 09:05:14;;;;;;;;;;;23.00;99.90;;;;;;5044184;28;19982;-68
2022/08/17 09:07:46;;;;;;;;;;;23.00;99.90;;;;;;5037449;28;19978;-68
2022/08/17 09:10:21;;;;;;;;;;;22.90;99.90;;;;;;5040142;28;19925;-68
2022/08/17 09:12:51;;;;;;;;;;;22.90;99.90;;;;;;5048257;28;20077;-68
2022/08/17 09:15:20;;;;;;;;;;;22.70;99.90;;;;;;5040016;28;20454;-68
2022/08/17 09:17:51;;;;;;;;;;;22.50;99.90;;;;;;5040662;28;20315;-68
2022/08/17 09:20:24;;;;;;;;;;;22.50;99.90;;;;;;5042867;28;19925;-68
2022/08/17 09:22:54;;;;;;;;;;;22.40;99.90;;;;;;5036848;28;19925;-68
2022/08/17 09:25:27;;;;;;;;;;;22.10;99.90;;;;;;5033711;28;20011;-68
2022/08/17 09:27:56;;;;;;;;;;;21.90;99.90;;;;;;5041011;28;19929;-68
2022/08/17 09:30:25;;;;;;;;;;;21.80;99.90;;;;;;5035339;28;19961;-68
2022/08/17 09:32:54;;;;;;;;;;;21.80;99.90;;;;;;5038078;28;19936;-68
2022/08/17 09:35:22;;;;;;;;;;;21.80;99.90;;;;;;5034676;28;19925;-68
2022/08/17 09:37:53;;;;;;;;;;;21.70;99.90;;;;;;5040965;28;19928;-68
2022/08/17 09:40:23;;;;;;;;;;;21.70;99.90;;;;;;5033056;28;20419;-68
2022/08/17 09:42:52;;;;;;;;;;;21.60;99.90;;;;;;5042347;28;19925;-68
2022/08/17 09:45:30;;;;;;;;;;;21.30;99.90;;;;;;5041072;28;19979;-68
2022/08/17 09:47:59;;;;;;;;;;;21.10;99.90;;;;;;5037309;28;19929;-68
2022/08/17 09:50:30;;;;;;;;;;;20.80;99.90;;;;;;5042824;28;19972;-68
2022/08/17 09:52:58;;;;;;;;;;;20.80;99.90;;;;;;5042393;28;19924;-68
2022/08/17 09:55:32;;;;;;;;;;;20.80;99.90;;;;;;5039318;28;19925;-68
2022/08/17 09:58:04;;;;;;;;;;;20.70;99.90;;;;;;5032442;28;19932;-68
2022/08/17 10:00:34;;;;;;;;;;;20.60;99.90;;;;;;5038754;28;19925;-68
2022/08/17 10:03:14;;;;;;;;;;;20.50;99.90;;;;;;5039472;28;19932;-68
2022/08/17 10:05:45;;;;;;;;;;;20.40;99.90;;;;;;5060621;28;19933;-68
2022/08/17 10:08:16;;;;;;;;;;;20.50;99.90;;;;;;5043844;28;20024;-68
2022/08/17 10:10:49;;;;;;;;;;;20.50;99.90;;;;;;5046341;28;20403;-68
2022/08/17 10:13:17;;;;;;;;;;;20.50;99.90;;;;;;5040768;28;19925;-68
2022/08/17 10:15:49;;;;;;;;;;;20.50;99.90;;;;;;5035992;28;19937;-68
2022/08/17 10:18:22;;;;;;;;;;;20.40;99.90;;;;;;5048321;28;19932;-68
2022/08/17 10:26:11;;;;;;;;;;;20.40;99.90;;;;;;5057405;28;19971;-68
2022/08/17 10:26:26;;;;;;;;;;;20.40;99.90;;;;;;5058994;28;19921;-68
2022/08/17 10:28:57;;;;;;;;;;;20.40;99.90;;;;;;5041787;28;19932;-68
2022/08/17 10:31:27;;;;;;;;;;;20.50;99.90;;;;;;5047692;28;19925;-68
2022/08/17 10:34:05;;;;;;;;;;;20.50;99.90;;;;;;5044020;28;19948;-68
2022/08/17 10:36:37;;;;;;;;;;;20.50;99.90;;;;;;5060900;28;19928;-68
2022/08/17 10:39:09;;;;;;;;;;;20.50;99.90;;;;;;5038367;28;19944;-68
2022/08/17 10:41:40;;;;;;;;;;;20.60;99.90;;;;;;5039153;28;19932;-68
2022/08/17 10:44:11;;;;;;;;;;;20.70;99.90;;;;;;5043908;28;19956;-68
2022/08/17 10:46:51;;;;;;;;;;;20.70;99.90;;;;;;5041996;28;20369;-68
2022/08/17 10:49:32;;;;;;;;;;;20.90;99.90;;;;;;5047951;28;19948;-68
2022/08/17 10:52:00;;;;;;;;;;;21.00;99.90;;;;;;5041747;28;20319;-68
2022/08/17 10:54:35;;;;;;;;;;;21.10;99.90;;;;;;5043563;28;19925;-68
2022/08/17 10:57:02;;;;;;;;;;;21.10;99.90;;;;;;5037032;28;19925;-68
2022/08/17 10:59:50;;;;;;;;;;;21.30;99.90;;;;;;5043681;28;19932;-68
2022/08/17 11:02:35;;;;;;;;;;;21.40;99.90;;;;;;5049751;28;20009;-68
2022/08/17 11:05:14;;;;;;;;;;;21.70;99.90;;;;;;5046743;28;19925;-68
2022/08/17 11:07:48;;;;;;;;;;;21.90;99.90;;;;;;5048261;28;19932;-68
2022/08/17 11:10:26;;;;;;;;;;;22.10;99.90;;;;;;5039611;28;19925;-68
2022/08/17 11:13:00;;;;;;;;;;;22.10;99.90;;;;;;5033261;28;19929;-68
2022/08/17 11:15:34;;;;;;;;;;;22.30;99.90;;;;;;5041305;28;19929;-68
2022/08/17 11:18:10;;;;;;;;;;;22.50;99.90;;;;;;5044238;28;19982;-68
2022/08/17 11:20:55;;;;;;;;;;;22.50;99.90;;;;;;5043486;28;19925;-68
2022/08/17 11:23:31;;;;;;;;;;;22.70;99.90;;;;;;5045404;28;19925;-68
2022/08/17 11:26:02;;;;;;;;;;;22.80;99.90;;;;;;5044769;28;20028;-68
2022/08/17 11:28:33;;;;;;;;;;;22.80;99.90;;;;;;5040129;28;19928;-68
2022/08/17 11:31:03;;;;;;;;;;;22.50;99.90;;;;;;5035023;28;19929;-68
2022/08/17 11:33:48;;;;;;;;;;;22.30;99.90;;;;;;5042765;28;20388;-68
2022/08/17 11:36:23;;;;;;;;;;;22.30;99.90;;;;;;5035610;28;19925;-68
2022/08/17 11:38:56;;;;;;;;;;;22.40;99.90;;;;;;5045671;28;20420;-67
2022/08/17 11:41:27;;;;;;;;;;;22.10;99.90;;;;;;5046395;28;19929;-68
2022/08/17 11:44:03;;;;;;;;;;;22.00;99.90;;;;;;5038871;28;20292;-68
2022/08/17 11:52:13;;;;;;;;;;;22.70;99.90;;;;;;5032341;28;19925;-68
2022/08/17 11:54:45;;;;;;;;;;;23.00;99.90;;;;;;5041079;28;20269;-68
2022/08/17 11:57:30;;;;;;;;;;;23.20;99.90;;;;;;5045812;28;19925;-68
2022/08/17 11:59:59;;;;;;;;;;;23.30;99.90;;;;;;5038526;28;19925;-68
2022/08/17 12:02:31;;;;;;;;;;;23.40;99.90;;;;;;5043833;28;19933;-68
2022/08/17 12:05:25;;;;;;;;;;;23.20;99.90;;;;;;5040444;28;19925;-68
2022/08/17 12:07:56;;;;;;;;;;;23.50;99.90;;;;;;5032970;28;20372;-68
2022/08/17 12:10:30;;;;;;;;;;;23.20;99.90;;;;;;5042587;28;19933;-68
2022/08/17 12:12:57;;;;;;;;;;;23.10;99.90;;;;;;5038316;28;20542;-68
2022/08/17 12:15:27;;;;;;;;;;;23.00;99.90;;;;;;5039065;28;19955;-68
2022/08/17 12:17:55;;;;;;;;;;;23.20;99.90;;;;;;5049504;28;20020;-68
2022/08/17 12:20:24;;;;;;;;;;;23.40;99.90;;;;;;5039621;28;20392;-68
2022/08/17 12:22:56;;;;;;;;;;;23.50;99.90;;;;;;5032639;28;19925;-68
2022/08/17 12:25:31;;;;;;;;;;;23.50;99.90;;;;;;5035837;28;19931;-68
2022/08/17 12:27:58;;;;;;;;;;;22.80;99.90;;;;;;5034076;28;19925;-68
2022/08/17 12:30:25;;;;;;;;;;;22.30;99.90;;;;;;5039286;28;19925;-68
2022/08/17 12:32:53;;;;;;;;;;;22.10;99.90;;;;;;5036252;28;19996;-68
2022/08/17 12:35:23;;;;;;;;;;;21.70;99.90;;;;;;5039553;28;19952;-68
2022/08/17 12:37:50;;;;;;;;;;;21.70;99.90;;;;;;5036936;28;19929;-68
2022/08/17 12:40:21;;;;;;;;;;;21.80;99.90;;;;;;5039809;28;19924;-68
2022/08/17 12:42:55;;;;;;;;;;;21.80;99.90;;;;;;5051963;28;20308;-68
2022/08/17 12:45:23;;;;;;;;;;;21.90;99.90;;;;;;5037995;28;19925;-68
2022/08/17 12:47:59;;;;;;;;;;;21.80;99.90;;;;;;5033683;28;19929;-68
2022/08/17 12:50:25;;;;;;;;;;;21.60;99.90;;;;;;5034006;28;19987;-68
2022/08/17 12:52:54;;;;;;;;;;;21.50;99.90;;;;;;5043149;28;19925;-68
2022/08/17 12:55:23;;;;;;;;;;;21.40;99.90;;;;;;5039305;28;19933;-68
2022/08/17 12:57:53;;;;;;;;;;;21.40;99.90;;;;;;5036297;28;19928;-68
2022/08/17 13:00:25;;;;;;;;;;;21.50;99.90;;;;;;5034526;28;20300;-68
2022/08/17 13:02:52;;;;;;;;;;;21.50;99.90;;;;;;5041874;28;19928;-68
2022/08/17 13:05:23;;;;;;;;;;;21.50;99.90;;;;;;5036106;28;19956;-68
2022/08/17 13:07:51;;;;;;;;;;;21.50;99.90;;;;;;5031853;28;19928;-68
2022/08/17 13:10:21;;;;;;;;;;;21.60;99.90;;;;;;5031968;28;20131;-68
2022/08/17 13:12:49;;;;;;;;;;;21.70;99.90;;;;;;5033378;28;19925;-68
2022/08/17 13:15:22;;;;;;;;;;;22.00;99.90;;;;;;5034238;28;19924;-71
2022/08/17 13:18:02;;;;;;;;;;;22.30;99.90;;;;;;5037931;28;19929;-69
2022/08/17 13:20:30;;;;;;;;;;;22.70;99.90;;;;;;5039864;28;19925;-69
2022/08/17 13:22:57;;;;;;;;;;;23.10;99.90;;;;;;5046799;28;19924;-69
2022/08/17 13:25:24;;;;;;;;;;;23.50;99.90;;;;;;5045657;28;20019;-69
2022/08/17 13:27:52;;;;;;;;;;;23.80;99.90;;;;;;5033730;28;19925;-68
2022/08/17 13:30:22;;;;;;;;;;;23.90;99.90;;;;;;5049725;28;19929;-68
2022/08/17 13:32:49;;;;;;;;;;;24.30;99.90;;;;;;5034455;28;19925;-68
2022/08/17 13:35:28;;;;;;;;;;;24.50;99.90;;;;;;5036676;28;19979;-68
2022/08/17 13:38:00;;;;;;;;;;;24.60;99.90;;;;;;5051528;28;19929;-67
2022/08/17 13:40:29;;;;;;;;;;;24.70;99.90;;;;;;5039149;28;19931;-68
2022/08/17 13:42:56;;;;;;;;;;;24.40;99.90;;;;;;5038858;28;19931;-68
2022/08/17 13:45:42;;;;;;;;;;;24.30;99.90;;;;;;5040163;28;19925;-68
2022/08/17 13:48:10;;;;;;;;;;;24.00;99.90;;;;;;5037955;28;19931;-68
2022/08/17 13:50:39;;;;;;;;;;;23.80;99.90;;;;;;5041512;28;20462;-67
2022/08/17 13:53:15;;;;;;;;;;;23.60;99.90;;;;;;5056836;28;20415;-68
2022/08/17 13:55:46;;;;;;;;;;;23.40;99.90;;;;;;5036558;28;19975;-68
2022/08/17 13:58:19;;;;;;;;;;;23.00;99.90;;;;;;5036861;28;19935;-68
2022/08/17 14:00:49;;;;;;;;;;;22.90;99.90;;;;;;5029065;28;20338;-69
2022/08/17 14:03:16;;;;;;;;;;;23.00;99.90;;;;;;5029511;28;19935;-68
2022/08/17 14:05:44;;;;;;;;;;;23.20;99.90;;;;;;5028605;28;19961;-68
2022/08/17 14:08:13;;;;;;;;;;;23.40;99.90;;;;;;5036499;28;19925;-68
2022/08/17 14:10:40;;;;;;;;;;;23.60;99.90;;;;;;5031181;28;20349;-68
2022/08/17 14:13:07;;;;;;;;;;;24.20;99.90;;;;;;5032678;28;20362;-68
2022/08/17 14:15:34;;;;;;;;;;;23.90;99.90;;;;;;5034657;28;19925;-68
2022/08/17 14:18:03;;;;;;;;;;;24.40;99.90;;;;;;5033493;28;19932;-68
2022/08/17 14:20:30;;;;;;;;;;;25.00;99.90;;;;;;5029210;28;19935;-67
2022/08/17 14:22:57;;;;;;;;;;;26.80;99.90;;;;;;5038597;28;20401;-68
2022/08/17 14:25:25;;;;;;;;;;;28.20;99.90;;;;;;5048216;28;19925;-69
2022/08/17 14:27:52;;;;;;;;;;;30.20;99.90;;;;;;5035084;28;19925;-68
2022/08/17 14:30:20;;;;;;;;;;;31.00;99.90;;;;;;5036644;28;19928;-69
2022/08/17 14:32:50;;;;;;;;;;;31.80;99.90;;;;;;5036622;28;19953;-69
2022/08/17 14:35:20;;;;;;;;;;;31.20;99.90;;;;;;5040012;28;19925;-68
2022/08/17 14:37:47;;;;;;;;;;;31.90;99.90;;;;;;5035820;28;19925;-69
2022/08/17 14:40:15;;;;;;;;;;;32.40;99.90;;;;;;5039230;28;19925;-69
2022/08/17 14:42:43;;;;;;;;;;;32.20;99.90;;;;;;5032943;28;19937;-68
2022/08/17 14:45:11;;;;;;;;;;;31.70;99.90;;;;;;5030246;28;19926;-68
2022/08/17 14:47:38;;;;;;;;;;;32.00;99.90;;;;;;5052809;28;19925;-68
2022/08/17 14:50:06;;;;;;;;;;;32.70;99.90;;;;;;5033692;28;19929;-68
2022/08/17 14:52:34;;;;;;;;;;;33.00;99.90;;;;;;5033655;28;19972;-68
2022/08/17 14:55:01;;;;;;;;;;;33.50;99.90;;;;;;5033583;28;20445;-69
2022/08/17 14:57:29;;;;;;;;;;;33.90;99.90;;;;;;5033539;28;19928;-69